createdAt,value
2022-12-19T01:36:27.151Z,102757.03
2022-12-19T01:38:58.374Z,102757.03
2022-12-19T01:41:27.392Z,102756.56
2022-12-19T01:43:58.092Z,102749.59
2022-12-19T01:46:49.191Z,102751.38
2022-12-19T01:49:30.629Z,102757.41
2022-12-19T01:52:00.255Z,102759.13
2022-12-19T01:54:35.268Z,102761.75
2022-12-19T01:57:04.442Z,102756.59
2022-12-19T01:59:36.555Z,102760.03
2022-12-19T02:02:11.096Z,102741.09
2022-12-19T02:04:40.693Z,102755.72
2022-12-19T02:07:15.778Z,102754.00
2022-12-19T02:09:47.640Z,102760.88
2022-12-19T02:12:26.276Z,102749.72
2022-12-19T02:14:59.050Z,102760.03
2022-12-19T02:18:01.214Z,102749.72
2022-12-19T02:21:03.945Z,102766.03
2022-12-19T02:23:53.083Z,102769.53
2022-12-19T02:26:43.336Z,102767.78
2022-12-19T02:29:40.629Z,102772.94
2022-12-19T02:32:25.821Z,102762.56
2022-12-19T02:35:17.755Z,102762.56
2022-12-19T02:37:50.669Z,102760.03
2022-12-19T02:40:40.137Z,102779.81
2022-12-19T02:43:09.035Z,102768.63
2022-12-19T02:45:38.256Z,102791.06
2022-12-19T02:48:08.999Z,102797.09
2022-12-19T02:50:42.284Z,102801.44
2022-12-19T02:53:14.106Z,102806.56
2022-12-19T02:55:50.563Z,102794.53
2022-12-19T02:58:27.510Z,102816.91
2022-12-19T03:01:10.858Z,102807.41
2022-12-19T03:14:48.050Z,102806.41
2022-12-19T03:17:21.694Z,102806.41
2022-12-19T03:19:48.431Z,102790.41
2022-12-19T03:22:15.494Z,102792.13
2022-12-19T03:24:42.175Z,102793.84
2022-12-19T03:27:13.150Z,102772.34
2022-12-19T03:29:46.629Z,102805.13
2022-12-19T03:32:15.416Z,102804.25
2022-12-19T03:34:50.407Z,102786.22
2022-12-19T03:37:22.423Z,102801.72
2022-12-19T03:39:51.709Z,102804.31
2022-12-19T03:42:39.839Z,102800.00
2022-12-19T03:45:07.394Z,102802.63
2022-12-19T03:47:42.127Z,102796.56
2022-12-19T03:50:09.900Z,102793.16
2022-12-19T03:52:55.210Z,102801.78
2022-12-19T03:55:41.263Z,102789.75
2022-12-19T03:58:12.331Z,102815.63
2022-12-19T04:00:47.475Z,102806.09
2022-12-19T04:03:17.681Z,102810.44
2022-12-19T04:05:47.369Z,102817.34
2022-12-19T04:08:15.829Z,102803.50
2022-12-19T04:10:48.938Z,102795.75
2022-12-19T04:13:30.147Z,102810.44
2022-12-19T04:16:15.323Z,102789.72
2022-12-19T04:18:47.655Z,102810.44
2022-12-19T04:21:25.963Z,102819.91
2022-12-19T04:24:08.152Z,102832.03
2022-12-19T04:26:37.194Z,102838.09
2022-12-19T18:59:39.779Z,102751.97
2022-12-19T19:02:25.338Z,102751.97
2022-12-19T19:04:55.599Z,102750.94
2022-12-19T19:07:22.526Z,102733.81
2022-12-19T19:09:49.134Z,102759.63
2022-12-19T19:12:17.084Z,102759.66
2022-12-19T19:14:44.080Z,102745.81
2022-12-19T19:17:27.145Z,102726.09
2022-12-19T19:19:54.947Z,102738.94
2022-12-19T19:22:21.637Z,102725.19
2022-12-19T19:24:48.254Z,102740.81
2022-12-19T19:27:15.152Z,102719.38
2022-12-19T19:29:41.794Z,102737.44
2022-12-19T19:32:08.566Z,102734.09
2022-12-19T19:34:37.309Z,102744.47
2022-12-19T19:37:07.912Z,102724.69
2022-12-19T19:39:35.109Z,102723.00
2022-12-19T19:42:02.327Z,102731.56
2022-12-19T19:44:29.915Z,102743.72
2022-12-19T19:46:56.943Z,102713.53
2022-12-19T19:49:23.975Z,102733.34
2022-12-19T19:51:52.356Z,102736.84
2022-12-19T19:54:22.563Z,102735.16
2022-12-19T19:56:49.247Z,102713.59
2022-12-19T19:59:15.911Z,102733.41
2022-12-19T20:01:43.251Z,102737.81
2022-12-19T20:04:10.281Z,102733.41
2022-12-19T20:06:36.936Z,102700.66
2022-12-19T20:09:04.109Z,102693.00
2022-12-19T20:11:31.027Z,102720.44
2022-12-19T20:13:57.675Z,102728.22
2022-12-19T20:16:24.928Z,102719.62
2022-12-19T20:18:53.027Z,102720.63
2022-12-19T20:21:20.709Z,102730.03
2022-12-19T20:23:47.465Z,102730.03
2022-12-19T20:26:16.467Z,102717.91
2022-12-19T20:28:49.141Z,102707.50
2022-12-19T20:31:22.553Z,102708.41
2022-12-19T20:33:50.651Z,102694.63
2022-12-19T20:36:18.180Z,102691.28
2022-12-19T20:38:45.131Z,102696.38
2022-12-19T20:41:12.119Z,102697.19
2022-12-19T20:43:39.172Z,102678.28
2022-12-19T20:46:17.757Z,102673.09
2022-12-19T20:48:45.554Z,102707.66
2022-12-19T20:51:13.698Z,102690.25
2022-12-19T20:53:41.682Z,102662.66
2022-12-19T20:56:12.970Z,102672.81
2022-12-19T20:58:39.787Z,102671.84
2022-12-19T21:01:10.637Z,102651.25
2022-12-19T21:03:38.597Z,102665.81
2022-12-19T21:06:06.461Z,102668.44
2022-12-19T21:08:34.454Z,102649.53
2022-12-19T21:11:02.915Z,102668.41
2022-12-19T21:13:29.746Z,102668.38
2022-12-19T21:15:58.739Z,102660.63
2022-12-19T21:18:26.730Z,102665.72
2022-12-19T21:20:54.313Z,102644.25
2022-12-19T21:23:22.815Z,102650.22
2022-12-19T21:25:49.931Z,102657.13
2022-12-19T21:28:16.672Z,102656.25
2022-12-19T21:30:43.368Z,102644.16
2022-12-19T21:33:10.886Z,102646.78
2022-12-19T21:35:40.288Z,102643.31
2022-12-19T21:38:06.985Z,102643.34
2022-12-19T21:40:36.427Z,102639.87
2022-12-19T21:43:09.645Z,102619.38
2022-12-19T21:45:38.561Z,102634.66
2022-12-19T21:48:05.319Z,102623.37
2022-12-19T21:50:33.562Z,102610.38
2022-12-19T21:53:01.100Z,102613.03
2022-12-19T21:55:27.867Z,102604.31
2022-12-19T21:57:54.436Z,102586.31
2022-12-19T22:00:21.607Z,102601.75
2022-12-19T22:03:12.122Z,102601.72
2022-12-19T22:05:35.717Z,102608.69
2022-12-19T22:08:02.575Z,102602.63
2022-12-19T22:10:29.187Z,102583.66
2022-12-19T22:12:55.870Z,102582.78
2022-12-19T22:15:22.809Z,102589.53
2022-12-19T22:17:49.777Z,102587.78
2022-12-19T22:20:16.449Z,102574.81
2022-12-19T22:22:43.356Z,102559.34
2022-12-19T22:25:10.122Z,102564.50
2022-12-19T22:27:36.801Z,102572.97
2022-12-19T22:30:10.682Z,102570.38
2022-12-19T22:32:37.943Z,102577.34
2022-12-19T22:35:05.434Z,102554.94
2022-12-19T22:37:32.103Z,102558.47
2022-12-19T22:40:00.428Z,102567.88
